sensor_id;sensor_type;location;lat;lon;timestamp;temperature;humidity
26947;DHT22;14501;52.282;10.560;2024-02-16T00:00:09;9.70;99.90
26947;DHT22;14501;52.282;10.560;2024-02-16T00:06:00;9.70;99.90
26947;DHT22;14501;52.282;10.560;2024-02-16T00:08:25;9.70;99.90
26947;DHT22;14501;52.282;10.560;2024-02-16T00:10:51;9.60;99.90
26947;DHT22;14501;52.282;10.560;2024-02-16T00:13:16;9.60;99.90
26947;DHT22;14501;52.282;10.560;2024-02-16T00:15:42;9.60;99.90
26947;DHT22;14501;52.282;10.560;2024-02-16T00:18:08;9.60;99.90
26947;DHT22;14501;52.282;10.560;2024-02-16T00:20:33;9.60;99.90
26947;DHT22;14501;52.282;10.560;2024-02-16T00:22:59;9.60;99.90
26947;DHT22;14501;52.282;10.560;2024-02-16T00:25:28;9.60;99.90
26947;DHT22;14501;52.282;10.560;2024-02-16T00:27:53;9.70;99.90
26947;DHT22;14501;52.282;10.560;2024-02-16T00:30:19;9.70;99.90
26947;DHT22;14501;52.282;10.560;2024-02-16T00:32:45;9.80;99.90
26947;DHT22;14501;52.282;10.560;2024-02-16T00:35:11;9.80;99.90
26947;DHT22;14501;52.282;10.560;2024-02-16T00:37:37;10.10;99.90
26947;DHT22;14501;52.282;10.560;2024-02-16T00:40:04;9.90;99.90
26947;DHT22;14501;52.282;10.560;2024-02-16T00:42:31;9.90;99.90
26947;DHT22;14501;52.282;10.560;2024-02-16T00:44:57;10.80;99.90
26947;DHT22;14501;52.282;10.560;2024-02-16T00:47:25;10.10;99.90
26947;DHT22;14501;52.282;10.560;2024-02-16T00:49:52;10.00;99.90
26947;DHT22;14501;52.282;10.560;2024-02-16T00:52:18;10.00;99.90
26947;DHT22;14501;52.282;10.560;2024-02-16T00:54:44;10.00;99.90
26947;DHT22;14501;52.282;10.560;2024-02-16T00:57:09;10.00;99.90
26947;DHT22;14501;52.282;10.560;2024-02-16T00:59:35;10.00;99.90
26947;DHT22;14501;52.282;10.560;2024-02-16T01:02:00;10.00;99.90
26947;DHT22;14501;52.282;10.560;2024-02-16T01:04:26;10.00;99.90
26947;DHT22;14501;52.282;10.560;2024-02-16T01:06:52;9.80;99.90
26947;DHT22;14501;52.282;10.560;2024-02-16T01:09:18;10.10;99.90
26947;DHT22;14501;52.282;10.560;2024-02-16T01:11:43;10.10;99.90
26947;DHT22;14501;52.282;10.560;2024-02-16T01:14:09;10.10;99.90
26947;DHT22;14501;52.282;10.560;2024-02-16T01:16:34;10.10;99.90
26947;DHT22;14501;52.282;10.560;2024-02-16T01:21:27;10.20;99.90
26947;DHT22;14501;52.282;10.560;2024-02-16T01:23:53;10.10;99.90
26947;DHT22;14501;52.282;10.560;2024-02-16T01:26:18;10.10;99.90
26947;DHT22;14501;52.282;10.560;2024-02-16T01:28:44;10.10;99.90
26947;DHT22;14501;52.282;10.560;2024-02-16T01:31:10;10.50;99.90
26947;DHT22;14501;52.282;10.560;2024-02-16T01:33:36;9.80;99.90
26947;DHT22;14501;52.282;10.560;2024-02-16T01:36:03;10.10;99.90
26947;DHT22;14501;52.282;10.560;2024-02-16T01:38:29;10.10;99.90
26947;DHT22;14501;52.282;10.560;2024-02-16T01:40:54;10.10;99.90
26947;DHT22;14501;52.282;10.560;2024-02-16T01:43:21;10.10;99.90
26947;DHT22;14501;52.282;10.560;2024-02-16T01:45:46;10.20;99.90
26947;DHT22;14501;52.282;10.560;2024-02-16T01:48:14;10.00;99.90
26947;DHT22;14501;52.282;10.560;2024-02-16T01:50:42;10.00;99.90
26947;DHT22;14501;52.282;10.560;2024-02-16T01:53:08;10.00;99.90
26947;DHT22;14501;52.282;10.560;2024-02-16T01:55:34;10.00;99.90
26947;DHT22;14501;52.282;10.560;2024-02-16T01:58:00;10.00;99.90
26947;DHT22;14501;52.282;10.560;2024-02-16T02:00:26;9.80;99.90
26947;DHT22;14501;52.282;10.560;2024-02-16T02:02:52;10.00;99.90
26947;DHT22;14501;52.282;10.560;2024-02-16T02:05:17;9.90;99.90
26947;DHT22;14501;52.282;10.560;2024-02-16T02:07:43;9.90;99.90
26947;DHT22;14501;52.282;10.560;2024-02-16T02:10:10;9.90;99.90
26947;DHT22;14501;52.282;10.560;2024-02-16T02:12:38;9.90;99.90
26947;DHT22;14501;52.282;10.560;2024-02-16T02:15:05;9.80;99.90
26947;DHT22;14501;52.282;10.560;2024-02-16T02:17:31;9.90;99.90
26947;DHT22;14501;52.282;10.560;2024-02-16T02:19:56;9.90;99.90
26947;DHT22;14501;52.282;10.560;2024-02-16T02:22:22;9.90;99.90
26947;DHT22;14501;52.282;10.560;2024-02-16T02:24:48;10.00;99.90
26947;DHT22;14501;52.282;10.560;2024-02-16T02:27:17;10.10;99.90
26947;DHT22;14501;52.282;10.560;2024-02-16T02:29:42;10.20;99.90
26947;DHT22;14501;52.282;10.560;2024-02-16T02:32:09;10.20;99.90
26947;DHT22;14501;52.282;10.560;2024-02-16T02:34:35;10.20;99.90
26947;DHT22;14501;52.282;10.560;2024-02-16T02:37:05;10.30;99.90
26947;DHT22;14501;52.282;10.560;2024-02-16T02:39:31;10.30;99.90
26947;DHT22;14501;52.282;10.560;2024-02-16T02:41:56;10.20;99.90
26947;DHT22;14501;52.282;10.560;2024-02-16T02:44:24;10.20;99.90
26947;DHT22;14501;52.282;10.560;2024-02-16T02:46:50;10.20;99.90
26947;DHT22;14501;52.282;10.560;2024-02-16T02:49:15;10.20;99.90
26947;DHT22;14501;52.282;10.560;2024-02-16T02:51:41;10.20;99.90
26947;DHT22;14501;52.282;10.560;2024-02-16T02:54:07;10.10;99.90
26947;DHT22;14501;52.282;10.560;2024-02-16T02:56:32;9.70;99.90
26947;DHT22;14501;52.282;10.560;2024-02-16T02:58:58;10.30;99.90
26947;DHT22;14501;52.282;10.560;2024-02-16T03:01:23;10.00;99.90
26947;DHT22;14501;52.282;10.560;2024-02-16T03:06:18;10.00;99.90
26947;DHT22;14501;52.282;10.560;2024-02-16T03:08:44;10.00;99.90
26947;DHT22;14501;52.282;10.560;2024-02-16T03:11:10;10.00;99.90
26947;DHT22;14501;52.282;10.560;2024-02-16T03:13:36;9.90;99.90
26947;DHT22;14501;52.282;10.560;2024-02-16T03:16:01;9.90;99.90
26947;DHT22;14501;52.282;10.560;2024-02-16T03:18:31;9.80;99.90
26947;DHT22;14501;52.282;10.560;2024-02-16T03:20:57;9.80;99.90
26947;DHT22;14501;52.282;10.560;2024-02-16T03:23:24;10.00;99.90
26947;DHT22;14501;52.282;10.560;2024-02-16T03:25:49;9.60;99.90
26947;DHT22;14501;52.282;10.560;2024-02-16T03:28:15;9.60;99.90
26947;DHT22;14501;52.282;10.560;2024-02-16T03:30:41;9.80;99.90
26947;DHT22;14501;52.282;10.560;2024-02-16T03:33:08;9.50;99.90
26947;DHT22;14501;52.282;10.560;2024-02-16T03:35:34;9.50;99.90
26947;DHT22;14501;52.282;10.560;2024-02-16T03:38:00;9.50;99.90
26947;DHT22;14501;52.282;10.560;2024-02-16T03:40:26;9.60;99.90
26947;DHT22;14501;52.282;10.560;2024-02-16T03:42:52;9.60;99.90
26947;DHT22;14501;52.282;10.560;2024-02-16T03:45:17;9.60;99.90
26947;DHT22;14501;52.282;10.560;2024-02-16T03:47:43;9.50;99.90
26947;DHT22;14501;52.282;10.560;2024-02-16T03:50:09;9.50;99.90
26947;DHT22;14501;52.282;10.560;2024-02-16T03:52:36;9.40;99.90
26947;DHT22;14501;52.282;10.560;2024-02-16T03:55:02;9.40;99.90
26947;DHT22;14501;52.282;10.560;2024-02-16T03:57:29;9.40;99.90
26947;DHT22;14501;52.282;10.560;2024-02-16T03:59:55;9.50;99.90
26947;DHT22;14501;52.282;10.560;2024-02-16T04:02:20;9.50;99.90
26947;DHT22;14501;52.282;10.560;2024-02-16T04:04:46;9.50;99.90
26947;DHT22;14501;52.282;10.560;2024-02-16T04:07:12;9.50;99.90
26947;DHT22;14501;52.282;10.560;2024-02-16T04:09:37;9.50;99.90
26947;DHT22;14501;52.282;10.560;2024-02-16T04:12:03;9.50;99.90
26947;DHT22;14501;52.282;10.560;2024-02-16T04:14:29;9.50;99.90
26947;DHT22;14501;52.282;10.560;2024-02-16T04:16:56;9.50;99.90
26947;DHT22;14501;52.282;10.560;2024-02-16T04:19:25;9.50;99.90
26947;DHT22;14501;52.282;10.560;2024-02-16T04:21:51;9.50;99.90
26947;DHT22;14501;52.282;10.560;2024-02-16T04:24:17;9.50;99.90
26947;DHT22;14501;52.282;10.560;2024-02-16T04:26:43;9.50;99.90
26947;DHT22;14501;52.282;10.560;2024-02-16T04:29:09;9.50;99.90
26947;DHT22;14501;52.282;10.560;2024-02-16T04:31:35;9.60;99.90
26947;DHT22;14501;52.282;10.560;2024-02-16T04:34:01;9.60;99.90
26947;DHT22;14501;52.282;10.560;2024-02-16T04:36:27;9.70;99.90
26947;DHT22;14501;52.282;10.560;2024-02-16T04:38:53;9.70;99.90
26947;DHT22;14501;52.282;10.560;2024-02-16T04:41:20;9.80;99.90
26947;DHT22;14501;52.282;10.560;2024-02-16T04:43:46;9.80;99.90
26947;DHT22;14501;52.282;10.560;2024-02-16T04:46:17;9.90;99.90
26947;DHT22;14501;52.282;10.560;2024-02-16T04:48:43;9.90;99.90
26947;DHT22;14501;52.282;10.560;2024-02-16T04:51:10;9.90;99.90
26947;DHT22;14501;52.282;10.560;2024-02-16T04:53:35;9.90;99.90
26947;DHT22;14501;52.282;10.560;2024-02-16T04:56:01;9.90;99.90
26947;DHT22;14501;52.282;10.560;2024-02-16T04:58:27;9.90;99.90
26947;DHT22;14501;52.282;10.560;2024-02-16T05:00:53;9.90;99.90
26947;DHT22;14501;52.282;10.560;2024-02-16T05:03:19;9.90;99.90
26947;DHT22;14501;52.282;10.560;2024-02-16T05:05:44;10.00;99.90
26947;DHT22;14501;52.282;10.560;2024-02-16T05:08:11;10.10;99.90
26947;DHT22;14501;52.282;10.560;2024-02-16T05:10:36;10.20;99.90
26947;DHT22;14501;52.282;10.560;2024-02-16T05:13:03;10.10;99.90
26947;DHT22;14501;52.282;10.560;2024-02-16T05:15:29;10.20;99.90
26947;DHT22;14501;52.282;10.560;2024-02-16T05:17:54;10.20;99.90
26947;DHT22;14501;52.282;10.560;2024-02-16T05:20:20;10.30;99.90
26947;DHT22;14501;52.282;10.560;2024-02-16T05:22:46;10.30;99.90
26947;DHT22;14501;52.282;10.560;2024-02-16T05:25:13;10.30;99.90
26947;DHT22;14501;52.282;10.560;2024-02-16T05:27:39;10.20;99.90
26947;DHT22;14501;52.282;10.560;2024-02-16T05:30:05;10.20;99.90
26947;DHT22;14501;52.282;10.560;2024-02-16T05:32:35;10.10;99.90
26947;DHT22;14501;52.282;10.560;2024-02-16T05:35:01;10.10;99.90
26947;DHT22;14501;52.282;10.560;2024-02-16T05:37:31;10.10;99.90
26947;DHT22;14501;52.282;10.560;2024-02-16T05:39:58;10.10;99.90
26947;DHT22;14501;52.282;10.560;2024-02-16T05:45:00;10.00;99.90
26947;DHT22;14501;52.282;10.560;2024-02-16T05:47:25;9.90;99.90
26947;DHT22;14501;52.282;10.560;2024-02-16T05:49:52;9.90;99.90
26947;DHT22;14501;52.282;10.560;2024-02-16T05:52:18;10.00;99.90
26947;DHT22;14501;52.282;10.560;2024-02-16T05:54:44;10.10;99.90
26947;DHT22;14501;52.282;10.560;2024-02-16T05:57:10;10.10;99.90
26947;DHT22;14501;52.282;10.560;2024-02-16T05:59:36;10.20;99.90
26947;DHT22;14501;52.282;10.560;2024-02-16T06:02:03;10.20;99.90
26947;DHT22;14501;52.282;10.560;2024-02-16T06:04:29;10.20;99.90
26947;DHT22;14501;52.282;10.560;2024-02-16T06:06:55;10.30;99.90
26947;DHT22;14501;52.282;10.560;2024-02-16T06:09:20;10.30;99.90
26947;DHT22;14501;52.282;10.560;2024-02-16T06:11:46;10.30;99.90
26947;DHT22;14501;52.282;10.560;2024-02-16T06:14:11;10.30;99.90
26947;DHT22;14501;52.282;10.560;2024-02-16T06:16:37;10.30;99.90
26947;DHT22;14501;52.282;10.560;2024-02-16T06:19:03;10.40;99.90
26947;DHT22;14501;52.282;10.560;2024-02-16T06:21:28;10.50;99.90
26947;DHT22;14501;52.282;10.560;2024-02-16T06:23:54;10.50;99.90
26947;DHT22;14501;52.282;10.560;2024-02-16T06:26:20;10.40;99.90
26947;DHT22;14501;52.282;10.560;2024-02-16T06:28:46;10.60;99.90
26947;DHT22;14501;52.282;10.560;2024-02-16T06:31:12;10.60;99.90
26947;DHT22;14501;52.282;10.560;2024-02-16T06:33:39;10.60;99.90
26947;DHT22;14501;52.282;10.560;2024-02-16T06:36:05;10.60;99.90
26947;DHT22;14501;52.282;10.560;2024-02-16T06:38:32;10.60;99.90
26947;DHT22;14501;52.282;10.560;2024-02-16T06:40:58;10.60;99.90
26947;DHT22;14501;52.282;10.560;2024-02-16T06:43:23;10.60;99.90
26947;DHT22;14501;52.282;10.560;2024-02-16T06:45:49;10.70;99.90
26947;DHT22;14501;52.282;10.560;2024-02-16T06:48:14;10.80;99.90
26947;DHT22;14501;52.282;10.560;2024-02-16T06:50:40;11.00;99.90
26947;DHT22;14501;52.282;10.560;2024-02-16T06:53:06;11.00;99.90
26947;DHT22;14501;52.282;10.560;2024-02-16T06:55:31;11.10;99.90
26947;DHT22;14501;52.282;10.560;2024-02-16T06:57:57;11.10;99.90
26947;DHT22;14501;52.282;10.560;2024-02-16T07:00:22;11.20;99.90
26947;DHT22;14501;52.282;10.560;2024-02-16T07:02:48;11.20;99.90
26947;DHT22;14501;52.282;10.560;2024-02-16T07:05:14;11.20;99.90
26947;DHT22;14501;52.282;10.560;2024-02-16T07:07:41;11.20;99.90
26947;DHT22;14501;52.282;10.560;2024-02-16T07:12:33;11.30;99.90
26947;DHT22;14501;52.282;10.560;2024-02-16T07:14:59;11.30;99.90
26947;DHT22;14501;52.282;10.560;2024-02-16T07:17:25;11.30;99.90
26947;DHT22;14501;52.282;10.560;2024-02-16T07:19:50;11.40;99.90
26947;DHT22;14501;52.282;10.560;2024-02-16T07:22:16;11.50;99.90
26947;DHT22;14501;52.282;10.560;2024-02-16T07:24:41;11.50;99.90
26947;DHT22;14501;52.282;10.560;2024-02-16T07:27:07;11.60;99.90
26947;DHT22;14501;52.282;10.560;2024-02-16T07:29:33;11.70;99.90
26947;DHT22;14501;52.282;10.560;2024-02-16T07:32:01;11.80;99.90
26947;DHT22;14501;52.282;10.560;2024-02-16T07:34:26;11.80;99.90
26947;DHT22;14501;52.282;10.560;2024-02-16T07:36:54;11.90;99.90
26947;DHT22;14501;52.282;10.560;2024-02-16T07:39:20;12.10;99.90
26947;DHT22;14501;52.282;10.560;2024-02-16T07:41:48;12.20;99.90
26947;DHT22;14501;52.282;10.560;2024-02-16T07:44:14;12.40;99.90
26947;DHT22;14501;52.282;10.560;2024-02-16T07:46:41;12.60;99.90
26947;DHT22;14501;52.282;10.560;2024-02-16T07:49:07;12.70;99.90
26947;DHT22;14501;52.282;10.560;2024-02-16T07:51:32;12.90;99.90
26947;DHT22;14501;52.282;10.560;2024-02-16T07:53:58;13.00;99.90
26947;DHT22;14501;52.282;10.560;2024-02-16T07:56:24;13.00;99.90
26947;DHT22;14501;52.282;10.560;2024-02-16T07:58:49;13.20;99.90
26947;DHT22;14501;52.282;10.560;2024-02-16T08:01:15;13.30;99.90
26947;DHT22;14501;52.282;10.560;2024-02-16T08:03:41;13.40;99.90
26947;DHT22;14501;52.282;10.560;2024-02-16T08:06:07;13.50;99.90
26947;DHT22;14501;52.282;10.560;2024-02-16T08:08:32;13.70;99.90
26947;DHT22;14501;52.282;10.560;2024-02-16T08:10:58;14.00;99.90
26947;DHT22;14501;52.282;10.560;2024-02-16T08:13:23;14.00;99.90
26947;DHT22;14501;52.282;10.560;2024-02-16T08:15:49;14.10;99.90
26947;DHT22;14501;52.282;10.560;2024-02-16T08:18:17;14.30;99.90
26947;DHT22;14501;52.282;10.560;2024-02-16T08:20:43;14.50;99.90
26947;DHT22;14501;52.282;10.560;2024-02-16T08:23:09;14.50;99.90
26947;DHT22;14501;52.282;10.560;2024-02-16T08:25:34;14.60;99.90
26947;DHT22;14501;52.282;10.560;2024-02-16T08:28:00;14.70;99.90
26947;DHT22;14501;52.282;10.560;2024-02-16T08:30:27;14.80;99.90
26947;DHT22;14501;52.282;10.560;2024-02-16T08:32:52;14.80;99.90
26947;DHT22;14501;52.282;10.560;2024-02-16T08:35:19;14.90;99.90
26947;DHT22;14501;52.282;10.560;2024-02-16T08:37:45;14.90;99.90
26947;DHT22;14501;52.282;10.560;2024-02-16T08:40:15;15.00;99.90
26947;DHT22;14501;52.282;10.560;2024-02-16T08:42:42;15.00;99.90
26947;DHT22;14501;52.282;10.560;2024-02-16T08:45:08;15.00;99.90
26947;DHT22;14501;52.282;10.560;2024-02-16T08:47:34;14.90;99.90
26947;DHT22;14501;52.282;10.560;2024-02-16T08:50:00;15.10;99.90
26947;DHT22;14501;52.282;10.560;2024-02-16T08:52:26;15.20;99.90
26947;DHT22;14501;52.282;10.560;2024-02-16T08:54:51;15.30;99.90
26947;DHT22;14501;52.282;10.560;2024-02-16T08:57:17;15.50;99.90
26947;DHT22;14501;52.282;10.560;2024-02-16T08:59:43;15.70;99.90
26947;DHT22;14501;52.282;10.560;2024-02-16T09:02:10;15.80;99.90
26947;DHT22;14501;52.282;10.560;2024-02-16T09:04:35;16.00;99.90
26947;DHT22;14501;52.282;10.560;2024-02-16T09:07:02;16.10;99.90
26947;DHT22;14501;52.282;10.560;2024-02-16T09:09:28;16.10;99.90
26947;DHT22;14501;52.282;10.560;2024-02-16T09:11:53;16.10;99.90
26947;DHT22;14501;52.282;10.560;2024-02-16T09:14:19;16.20;99.90
26947;DHT22;14501;52.282;10.560;2024-02-16T09:16:48;16.10;99.90
26947;DHT22;14501;52.282;10.560;2024-02-16T09:19:15;16.10;99.90
26947;DHT22;14501;52.282;10.560;2024-02-16T09:21:40;16.10;99.90
26947;DHT22;14501;52.282;10.560;2024-02-16T09:24:06;16.20;99.90
26947;DHT22;14501;52.282;10.560;2024-02-16T09:26:38;16.40;99.90
26947;DHT22;14501;52.282;10.560;2024-02-16T09:29:04;16.60;99.90
26947;DHT22;14501;52.282;10.560;2024-02-16T09:31:29;16.60;99.90
26947;DHT22;14501;52.282;10.560;2024-02-16T09:33:55;16.60;99.90
26947;DHT22;14501;52.282;10.560;2024-02-16T09:36:21;16.70;99.90
26947;DHT22;14501;52.282;10.560;2024-02-16T09:38:48;16.60;99.90
26947;DHT22;14501;52.282;10.560;2024-02-16T09:41:14;16.50;99.90
26947;DHT22;14501;52.282;10.560;2024-02-16T09:43:42;16.50;99.90
26947;DHT22;14501;52.282;10.560;2024-02-16T09:46:08;16.40;99.90
26947;DHT22;14501;52.282;10.560;2024-02-16T09:48:34;16.40;99.90
26947;DHT22;14501;52.282;10.560;2024-02-16T09:51:00;16.40;99.90
26947;DHT22;14501;52.282;10.560;2024-02-16T09:53:28;16.40;99.90
26947;DHT22;14501;52.282;10.560;2024-02-16T09:55:54;16.30;99.90
26947;DHT22;14501;52.282;10.560;2024-02-16T09:58:20;16.20;99.90
26947;DHT22;14501;52.282;10.560;2024-02-16T10:00:53;16.20;99.90
26947;DHT22;14501;52.282;10.560;2024-02-16T10:03:22;16.30;99.90
26947;DHT22;14501;52.282;10.560;2024-02-16T10:05:47;16.60;99.90
26947;DHT22;14501;52.282;10.560;2024-02-16T10:08:13;16.90;99.90
26947;DHT22;14501;52.282;10.560;2024-02-16T10:10:39;17.40;99.90
26947;DHT22;14501;52.282;10.560;2024-02-16T10:13:06;18.00;99.90
26947;DHT22;14501;52.282;10.560;2024-02-16T10:15:33;18.90;99.90
26947;DHT22;14501;52.282;10.560;2024-02-16T10:18:04;19.60;99.90
26947;DHT22;14501;52.282;10.560;2024-02-16T10:20:31;19.90;99.90
26947;DHT22;14501;52.282;10.560;2024-02-16T10:23:10;20.00;99.90
26947;DHT22;14501;52.282;10.560;2024-02-16T10:25:37;19.80;99.90
26947;DHT22;14501;52.282;10.560;2024-02-16T10:28:08;19.70;99.90
26947;DHT22;14501;52.282;10.560;2024-02-16T10:30:36;19.40;99.90
26947;DHT22;14501;52.282;10.560;2024-02-16T10:33:06;19.20;99.90
26947;DHT22;14501;52.282;10.560;2024-02-16T10:35:36;19.00;99.90
26947;DHT22;14501;52.282;10.560;2024-02-16T10:38:03;19.10;99.90
26947;DHT22;14501;52.282;10.560;2024-02-16T10:40:38;19.20;99.90
26947;DHT22;14501;52.282;10.560;2024-02-16T10:43:04;19.60;99.90
26947;DHT22;14501;52.282;10.560;2024-02-16T10:45:37;20.00;99.90
26947;DHT22;14501;52.282;10.560;2024-02-16T10:48:04;20.00;99.90
26947;DHT22;14501;52.282;10.560;2024-02-16T10:50:32;19.90;99.90
26947;DHT22;14501;52.282;10.560;2024-02-16T10:55:35;20.00;99.90
26947;DHT22;14501;52.282;10.560;2024-02-16T10:58:01;19.80;99.90
26947;DHT22;14501;52.282;10.560;2024-02-16T11:00:26;19.60;99.90
26947;DHT22;14501;52.282;10.560;2024-02-16T11:02:56;19.50;99.90
26947;DHT22;14501;52.282;10.560;2024-02-16T11:08:03;18.90;99.90
26947;DHT22;14501;52.282;10.560;2024-02-16T11:10:29;18.90;99.90
26947;DHT22;14501;52.282;10.560;2024-02-16T11:12:54;18.80;99.90
26947;DHT22;14501;52.282;10.560;2024-02-16T11:15:34;18.80;99.90
26947;DHT22;14501;52.282;10.560;2024-02-16T11:18:01;18.80;99.90
26947;DHT22;14501;52.282;10.560;2024-02-16T11:20:27;19.00;99.90
26947;DHT22;14501;52.282;10.560;2024-02-16T11:22:53;18.90;99.90
26947;DHT22;14501;52.282;10.560;2024-02-16T11:25:30;18.90;99.90
26947;DHT22;14501;52.282;10.560;2024-02-16T11:27:55;18.90;99.90
26947;DHT22;14501;52.282;10.560;2024-02-16T11:30:21;18.60;99.90
26947;DHT22;14501;52.282;10.560;2024-02-16T11:32:47;18.50;99.90
26947;DHT22;14501;52.282;10.560;2024-02-16T11:35:13;18.50;99.90
26947;DHT22;14501;52.282;10.560;2024-02-16T11:37:38;18.40;99.90
26947;DHT22;14501;52.282;10.560;2024-02-16T11:40:05;18.20;99.90
26947;DHT22;14501;52.282;10.560;2024-02-16T11:42:33;18.20;99.90
26947;DHT22;14501;52.282;10.560;2024-02-16T11:45:00;18.10;99.90
26947;DHT22;14501;52.282;10.560;2024-02-16T11:47:26;17.90;99.90
26947;DHT22;14501;52.282;10.560;2024-02-16T11:50:05;17.80;99.90
26947;DHT22;14501;52.282;10.560;2024-02-16T11:52:32;17.60;99.90
26947;DHT22;14501;52.282;10.560;2024-02-16T11:54:58;17.50;99.90
26947;DHT22;14501;52.282;10.560;2024-02-16T11:57:29;17.40;99.90
26947;DHT22;14501;52.282;10.560;2024-02-16T11:59:55;17.30;99.90
26947;DHT22;14501;52.282;10.560;2024-02-16T12:02:23;17.20;99.90
26947;DHT22;14501;52.282;10.560;2024-02-16T12:04:58;16.90;99.90
26947;DHT22;14501;52.282;10.560;2024-02-16T12:07:26;16.60;99.90
26947;DHT22;14501;52.282;10.560;2024-02-16T12:09:59;16.40;99.90
26947;DHT22;14501;52.282;10.560;2024-02-16T12:12:26;16.30;99.90
26947;DHT22;14501;52.282;10.560;2024-02-16T12:14:55;16.30;99.90
26947;DHT22;14501;52.282;10.560;2024-02-16T12:17:21;16.20;99.90
26947;DHT22;14501;52.282;10.560;2024-02-16T12:19:47;16.20;99.90
26947;DHT22;14501;52.282;10.560;2024-02-16T12:22:22;16.20;99.90
26947;DHT22;14501;52.282;10.560;2024-02-16T12:24:49;16.10;99.90
26947;DHT22;14501;52.282;10.560;2024-02-16T12:27:16;16.10;99.90
26947;DHT22;14501;52.282;10.560;2024-02-16T12:29:41;16.00;99.90
26947;DHT22;14501;52.282;10.560;2024-02-16T12:32:07;16.00;99.90
26947;DHT22;14501;52.282;10.560;2024-02-16T12:34:35;16.00;99.90
26947;DHT22;14501;52.282;10.560;2024-02-16T12:37:04;15.90;99.90
26947;DHT22;14501;52.282;10.560;2024-02-16T12:39:33;15.90;99.90
26947;DHT22;14501;52.282;10.560;2024-02-16T12:41:58;15.80;99.90
26947;DHT22;14501;52.282;10.560;2024-02-16T12:44:24;15.80;99.90
26947;DHT22;14501;52.282;10.560;2024-02-16T12:46:49;15.80;99.90
26947;DHT22;14501;52.282;10.560;2024-02-16T12:49:15;15.70;99.90
26947;DHT22;14501;52.282;10.560;2024-02-16T12:51:41;15.70;99.90
26947;DHT22;14501;52.282;10.560;2024-02-16T12:54:07;15.90;99.90
26947;DHT22;14501;52.282;10.560;2024-02-16T12:56:33;15.80;99.90
26947;DHT22;14501;52.282;10.560;2024-02-16T12:58:59;15.80;99.90
26947;DHT22;14501;52.282;10.560;2024-02-16T13:01:27;15.80;99.90
26947;DHT22;14501;52.282;10.560;2024-02-16T13:03:53;15.90;99.90
26947;DHT22;14501;52.282;10.560;2024-02-16T13:06:18;16.00;99.90
26947;DHT22;14501;52.282;10.560;2024-02-16T13:08:44;16.10;99.90
26947;DHT22;14501;52.282;10.560;2024-02-16T13:11:10;16.10;99.90
26947;DHT22;14501;52.282;10.560;2024-02-16T13:13:35;16.20;99.90
26947;DHT22;14501;52.282;10.560;2024-02-16T13:16:01;16.20;99.90
26947;DHT22;14501;52.282;10.560;2024-02-16T13:18:26;16.30;99.90
26947;DHT22;14501;52.282;10.560;2024-02-16T13:20:55;16.30;99.90
26947;DHT22;14501;52.282;10.560;2024-02-16T13:23:24;16.40;99.90
26947;DHT22;14501;52.282;10.560;2024-02-16T13:25:50;16.40;99.90
26947;DHT22;14501;52.282;10.560;2024-02-16T13:28:15;16.40;99.90
26947;DHT22;14501;52.282;10.560;2024-02-16T13:30:42;16.40;99.90
26947;DHT22;14501;52.282;10.560;2024-02-16T13:33:07;16.40;99.90
26947;DHT22;14501;52.282;10.560;2024-02-16T13:35:35;16.40;99.90
26947;DHT22;14501;52.282;10.560;2024-02-16T13:38:01;16.30;99.90
26947;DHT22;14501;52.282;10.560;2024-02-16T13:40:27;16.10;99.90
26947;DHT22;14501;52.282;10.560;2024-02-16T13:42:53;16.20;99.90
26947;DHT22;14501;52.282;10.560;2024-02-16T13:45:25;16.10;99.90
26947;DHT22;14501;52.282;10.560;2024-02-16T13:47:51;16.00;99.90
26947;DHT22;14501;52.282;10.560;2024-02-16T13:50:17;15.80;99.90
26947;DHT22;14501;52.282;10.560;2024-02-16T13:52:43;15.90;99.90
26947;DHT22;14501;52.282;10.560;2024-02-16T13:55:08;15.80;99.90
26947;DHT22;14501;52.282;10.560;2024-02-16T13:57:34;15.80;99.90
26947;DHT22;14501;52.282;10.560;2024-02-16T14:00:01;15.70;99.90
26947;DHT22;14501;52.282;10.560;2024-02-16T14:02:27;15.70;99.90
26947;DHT22;14501;52.282;10.560;2024-02-16T14:04:53;15.60;99.90
26947;DHT22;14501;52.282;10.560;2024-02-16T14:07:22;15.50;99.90
26947;DHT22;14501;52.282;10.560;2024-02-16T14:09:48;15.40;99.90
26947;DHT22;14501;52.282;10.560;2024-02-16T14:12:13;15.30;99.90
26947;DHT22;14501;52.282;10.560;2024-02-16T14:14:39;15.30;99.90
26947;DHT22;14501;52.282;10.560;2024-02-16T14:17:05;15.10;99.90
26947;DHT22;14501;52.282;10.560;2024-02-16T14:19:30;15.00;99.90
26947;DHT22;14501;52.282;10.560;2024-02-16T14:21:56;14.80;99.90
26947;DHT22;14501;52.282;10.560;2024-02-16T14:24:22;14.60;99.90
26947;DHT22;14501;52.282;10.560;2024-02-16T14:26:48;14.60;99.90
26947;DHT22;14501;52.282;10.560;2024-02-16T14:29:13;14.60;99.90
26947;DHT22;14501;52.282;10.560;2024-02-16T14:31:39;14.50;99.90
26947;DHT22;14501;52.282;10.560;2024-02-16T14:34:05;14.50;99.90
26947;DHT22;14501;52.282;10.560;2024-02-16T14:36:30;14.40;99.90
26947;DHT22;14501;52.282;10.560;2024-02-16T14:38:56;14.30;99.90
26947;DHT22;14501;52.282;10.560;2024-02-16T14:41:21;14.30;99.90
26947;DHT22;14501;52.282;10.560;2024-02-16T14:43:48;14.20;99.90
26947;DHT22;14501;52.282;10.560;2024-02-16T14:46:13;14.00;99.90
26947;DHT22;14501;52.282;10.560;2024-02-16T14:48:41;14.00;99.90
26947;DHT22;14501;52.282;10.560;2024-02-16T14:51:06;13.90;99.90
26947;DHT22;14501;52.282;10.560;2024-02-16T14:53:32;13.80;99.90
26947;DHT22;14501;52.282;10.560;2024-02-16T14:56:01;13.80;99.90
26947;DHT22;14501;52.282;10.560;2024-02-16T14:58:30;13.80;99.90
26947;DHT22;14501;52.282;10.560;2024-02-16T15:00:56;13.80;99.90
26947;DHT22;14501;52.282;10.560;2024-02-16T15:03:22;13.70;99.90
26947;DHT22;14501;52.282;10.560;2024-02-16T15:05:48;13.70;99.90
26947;DHT22;14501;52.282;10.560;2024-02-16T15:08:14;13.60;99.90
26947;DHT22;14501;52.282;10.560;2024-02-16T15:10:40;13.60;99.90
26947;DHT22;14501;52.282;10.560;2024-02-16T15:13:08;13.60;99.90
26947;DHT22;14501;52.282;10.560;2024-02-16T15:15:33;13.60;99.90
26947;DHT22;14501;52.282;10.560;2024-02-16T15:17:59;13.60;99.90
26947;DHT22;14501;52.282;10.560;2024-02-16T15:20:29;13.60;99.90
26947;DHT22;14501;52.282;10.560;2024-02-16T15:22:55;13.60;99.90
26947;DHT22;14501;52.282;10.560;2024-02-16T15:25:21;13.60;99.90
26947;DHT22;14501;52.282;10.560;2024-02-16T15:27:47;13.60;99.90
26947;DHT22;14501;52.282;10.560;2024-02-16T15:30:14;13.60;99.90
26947;DHT22;14501;52.282;10.560;2024-02-16T15:32:39;13.50;99.90